createdAt,value
2022-12-17T00:00:28.872Z,36.20
2022-12-17T00:01:28.883Z,32.70
2022-12-17T00:02:28.959Z,30.80
2022-12-17T00:03:28.946Z,36.10
2022-12-17T00:04:28.816Z,32.40
2022-12-17T00:05:28.820Z,38.30
2022-12-17T00:06:28.821Z,36.40
2022-12-17T00:07:28.865Z,33.10
2022-12-17T00:08:28.781Z,39.10
2022-12-17T00:09:28.800Z,38.60
2022-12-17T00:10:28.787Z,36.10
2022-12-17T00:11:28.795Z,35.00
2022-12-17T00:12:28.779Z,36.60
2022-12-17T00:13:28.799Z,37.90
2022-12-17T00:14:28.724Z,35.40
2022-12-17T00:15:28.735Z,36.40
2022-12-17T00:16:28.793Z,36.20
2022-12-17T00:17:28.739Z,36.80
2022-12-17T00:18:28.728Z,39.50
2022-12-17T00:19:28.773Z,36.40
2022-12-17T00:20:28.707Z,39.50
2022-12-17T00:21:28.712Z,40.10
2022-12-17T00:22:28.721Z,38.20
2022-12-17T00:23:28.700Z,37.60
2022-12-17T00:24:28.692Z,36.30
2022-12-17T00:25:28.742Z,36.90
2022-12-17T00:26:28.672Z,34.30
2022-12-17T00:27:28.680Z,38.70
2022-12-17T00:28:28.666Z,36.80
2022-12-17T00:29:28.659Z,37.30
2022-12-17T00:30:28.655Z,38.70
2022-12-17T00:31:28.763Z,35.30
2022-12-17T00:32:28.650Z,40.10
2022-12-17T00:33:28.643Z,36.10
2022-12-17T00:34:28.656Z,37.50
2022-12-17T00:35:28.649Z,39.50
2022-12-17T00:36:28.635Z,37.20
2022-12-17T00:37:28.662Z,34.70
2022-12-17T00:38:28.616Z,33.50
2022-12-17T00:39:28.612Z,33.90
2022-12-17T00:40:28.628Z,39.00
2022-12-17T00:41:28.589Z,33.60
2022-12-17T00:42:28.569Z,33.30
2022-12-17T00:43:28.615Z,34.10
2022-12-17T00:44:28.582Z,36.00
2022-12-17T00:45:28.566Z,32.00
2022-12-17T00:46:28.716Z,34.70
2022-12-17T00:47:28.538Z,36.10
2022-12-17T00:48:28.567Z,36.60
2022-12-17T00:49:28.612Z,33.10
2022-12-17T00:50:28.562Z,34.10
2022-12-17T00:51:28.532Z,42.20
2022-12-17T00:52:28.554Z,37.30
2022-12-17T00:53:28.522Z,35.70
2022-12-17T00:54:28.553Z,32.10
2022-12-17T00:55:29.022Z,34.50
2022-12-17T00:56:28.575Z,35.30
2022-12-17T00:57:28.535Z,34.30
2022-12-17T00:58:28.533Z,33.80
2022-12-17T00:59:28.530Z,36.10
2022-12-17T01:00:28.560Z,34.80
2022-12-17T01:01:28.712Z,33.70
2022-12-17T01:02:28.623Z,33.40
2022-12-17T01:03:28.532Z,39.70
2022-12-17T01:04:28.531Z,33.10
2022-12-17T01:05:28.521Z,36.80
2022-12-17T01:06:28.483Z,34.20
2022-12-17T01:07:28.575Z,42.30
2022-12-17T01:08:28.485Z,32.00
2022-12-17T01:09:28.486Z,31.80
2022-12-17T01:10:28.488Z,34.60
2022-12-17T01:11:28.499Z,36.50
2022-12-17T01:12:28.486Z,31.90
2022-12-17T01:13:28.530Z,34.80
2022-12-17T01:14:28.443Z,36.70
2022-12-17T01:15:28.451Z,33.00
2022-12-17T01:16:28.484Z,35.30
2022-12-17T01:17:28.441Z,34.10
2022-12-17T01:18:28.446Z,31.90
2022-12-17T01:19:28.525Z,38.60
2022-12-17T01:20:28.386Z,32.30
2022-12-17T01:21:28.362Z,33.70
2022-12-17T01:22:28.383Z,35.40
2022-12-17T01:23:28.394Z,32.80
2022-12-17T01:24:28.363Z,33.30
2022-12-17T01:25:28.400Z,33.40
2022-12-17T01:26:28.333Z,33.90
2022-12-17T01:27:28.340Z,33.40
2022-12-17T01:28:28.303Z,30.30
2022-12-17T01:29:28.315Z,33.10
2022-12-17T01:30:28.336Z,33.90
2022-12-17T01:31:34.260Z,33.40
2022-12-17T01:32:29.296Z,33.50
2022-12-17T01:33:28.306Z,33.00
2022-12-17T01:34:28.309Z,32.20
2022-12-17T01:35:28.279Z,35.90
2022-12-17T01:36:28.305Z,37.20
2022-12-17T01:37:28.331Z,37.30
2022-12-17T01:38:28.280Z,34.70
2022-12-17T01:40:02.545Z,39.10
2022-12-17T01:40:29.275Z,37.80
2022-12-17T01:41:28.239Z,35.80
2022-12-17T01:42:28.253Z,35.40
2022-12-17T01:43:28.328Z,35.90
2022-12-17T01:44:28.249Z,41.90
2022-12-17T01:45:28.306Z,37.40
2022-12-17T01:46:28.236Z,38.10
2022-12-17T01:47:28.222Z,37.00
2022-12-17T01:48:28.219Z,36.40
2022-12-17T01:49:28.367Z,33.90
2022-12-17T01:50:28.220Z,35.60
2022-12-17T01:51:28.201Z,36.90
2022-12-17T01:52:28.218Z,41.10
2022-12-17T01:53:28.220Z,36.40
2022-12-17T01:54:28.193Z,39.00
2022-12-17T01:55:28.882Z,39.10
2022-12-17T01:56:28.195Z,36.10
2022-12-17T01:57:28.181Z,35.00
2022-12-17T01:58:28.200Z,37.80
2022-12-17T01:59:28.201Z,36.10
2022-12-17T02:00:28.204Z,37.20
2022-12-17T02:01:28.325Z,38.70
2022-12-17T02:02:28.275Z,38.00
2022-12-17T02:03:28.220Z,34.60
2022-12-17T02:04:28.180Z,33.00
2022-12-17T02:05:28.158Z,39.50
2022-12-17T02:06:28.159Z,35.50
2022-12-17T02:07:28.267Z,33.60
2022-12-17T02:08:28.128Z,34.80
2022-12-17T02:09:28.120Z,39.00
2022-12-17T02:10:28.140Z,31.80
2022-12-17T02:11:28.117Z,41.20
2022-12-17T02:12:28.122Z,38.80
2022-12-17T02:13:28.216Z,37.90
2022-12-17T02:14:28.104Z,35.30
2022-12-17T02:15:28.120Z,37.10
2022-12-17T02:16:28.148Z,37.10
2022-12-17T02:17:28.175Z,35.20
2022-12-17T02:18:28.078Z,38.30
2022-12-17T02:19:28.160Z,36.30
2022-12-17T02:20:28.080Z,36.90
2022-12-17T02:21:28.059Z,42.10
2022-12-17T02:22:28.078Z,39.50
2022-12-17T02:23:28.059Z,35.80
2022-12-17T02:24:28.080Z,35.00
2022-12-17T02:25:28.103Z,33.90
2022-12-17T02:26:28.060Z,35.10
2022-12-17T02:27:28.012Z,33.00
2022-12-17T02:28:28.020Z,33.40
2022-12-17T02:29:28.040Z,36.60
2022-12-17T02:30:27.981Z,32.80
2022-12-17T02:31:28.221Z,35.70
2022-12-17T02:32:27.998Z,37.70
2022-12-17T02:33:28.008Z,32.90
2022-12-17T02:34:27.976Z,36.40
2022-12-17T02:35:28.001Z,34.50
2022-12-17T02:36:28.001Z,34.10
2022-12-17T02:37:28.058Z,32.60
2022-12-17T02:38:27.953Z,31.00
2022-12-17T02:39:27.953Z,33.00
2022-12-17T02:40:27.954Z,31.40
2022-12-17T02:41:27.964Z,37.60
2022-12-17T02:42:27.940Z,33.90
2022-12-17T02:43:28.003Z,29.10
2022-12-17T02:44:27.919Z,31.60
2022-12-17T02:45:27.919Z,31.00
2022-12-17T02:46:27.960Z,29.20
2022-12-17T02:47:27.941Z,31.20
2022-12-17T02:48:27.916Z,32.40
2022-12-17T02:49:27.953Z,32.40
2022-12-17T02:50:27.901Z,34.70
2022-12-17T02:51:27.895Z,30.10
2022-12-17T02:52:33.311Z,30.00
2022-12-17T02:53:28.863Z,32.30
2022-12-17T02:54:27.880Z,31.30
2022-12-17T02:55:27.932Z,29.30
2022-12-17T02:56:27.861Z,29.90
2022-12-17T02:57:27.855Z,30.40
2022-12-17T02:58:27.844Z,34.20
2022-12-17T02:59:27.818Z,27.20
2022-12-17T03:00:27.838Z,28.40
2022-12-17T03:01:28.301Z,29.80
2022-12-17T03:02:27.952Z,34.50
2022-12-17T03:03:27.854Z,33.10
2022-12-17T03:04:27.821Z,30.70
2022-12-17T03:05:44.467Z,36.00
2022-12-17T03:06:28.837Z,27.50
2022-12-17T03:07:27.821Z,30.40
2022-12-17T03:08:27.785Z,27.20
2022-12-17T03:09:27.780Z,32.20
2022-12-17T03:10:27.780Z,28.00
2022-12-17T03:11:27.769Z,31.40
2022-12-17T03:12:27.831Z,31.70
2022-12-17T03:13:27.737Z,26.00
2022-12-17T03:14:27.747Z,33.20
2022-12-17T03:15:27.761Z,32.30
2022-12-17T03:16:30.366Z,27.30
2022-12-17T03:17:28.816Z,32.10
2022-12-17T03:18:27.735Z,27.10
2022-12-17T03:19:27.748Z,33.80
2022-12-17T03:20:27.738Z,30.90
2022-12-17T03:21:27.741Z,30.20
2022-12-17T03:22:27.696Z,30.50
2022-12-17T03:23:27.776Z,29.60
2022-12-17T03:24:27.695Z,30.70
2022-12-17T03:25:27.728Z,31.50
2022-12-17T03:26:27.671Z,30.30
2022-12-17T03:27:27.679Z,35.30
2022-12-17T03:28:27.679Z,30.50
2022-12-17T03:29:27.710Z,29.30
2022-12-17T03:30:28.821Z,31.20
2022-12-17T03:31:27.718Z,28.80
2022-12-17T03:32:27.640Z,30.10
2022-12-17T03:33:27.659Z,32.40
2022-12-17T03:34:27.669Z,38.00
2022-12-17T03:35:27.688Z,30.30
2022-12-17T03:36:27.618Z,35.70
2022-12-17T03:37:27.640Z,32.70
2022-12-17T03:38:27.596Z,37.70
2022-12-17T03:39:27.620Z,29.80
2022-12-17T03:40:27.620Z,35.30
2022-12-17T03:41:27.700Z,35.30
2022-12-17T03:42:27.598Z,37.30
2022-12-17T03:43:27.561Z,35.80
2022-12-17T03:44:27.580Z,35.10
2022-12-17T03:45:27.556Z,40.50
2022-12-17T03:46:27.614Z,38.70
2022-12-17T03:47:27.642Z,34.00
2022-12-17T03:48:27.562Z,36.70
2022-12-17T03:49:27.541Z,36.80
2022-12-17T03:50:27.515Z,36.10
2022-12-17T03:51:27.540Z,33.30
2022-12-17T03:52:27.521Z,37.00
2022-12-17T03:53:27.580Z,33.40
2022-12-17T03:54:27.500Z,31.30
2022-12-17T03:55:27.517Z,33.50
2022-12-17T03:56:27.541Z,30.50
2022-12-17T03:57:27.489Z,32.50
2022-12-17T03:58:27.536Z,33.60
2022-12-17T03:59:27.562Z,33.20
2022-12-17T04:00:27.569Z,29.90
2022-12-17T04:01:27.601Z,29.20
2022-12-17T04:02:27.578Z,27.90
2022-12-17T04:03:27.504Z,30.70
2022-12-17T04:04:27.451Z,32.90
2022-12-17T04:05:27.988Z,27.70
2022-12-17T04:06:27.457Z,27.30
2022-12-17T04:07:27.460Z,28.20
2022-12-17T04:08:27.421Z,29.20
2022-12-17T04:09:27.459Z,24.30
2022-12-17T04:10:27.415Z,26.50
2022-12-17T04:11:27.472Z,28.70
2022-12-17T04:12:27.440Z,29.60
2022-12-17T04:13:27.420Z,27.50
2022-12-17T04:14:27.399Z,31.70
2022-12-17T04:15:27.423Z,24.60
2022-12-17T04:16:27.401Z,34.20
2022-12-17T04:17:27.416Z,28.90
2022-12-17T04:18:27.393Z,30.50
2022-12-17T04:19:27.379Z,40.20
2022-12-17T04:20:27.379Z,35.50
2022-12-17T04:21:27.359Z,31.30
2022-12-17T04:22:27.342Z,29.70
2022-12-17T04:23:27.397Z,36.10
2022-12-17T04:24:27.309Z,32.20
2022-12-17T04:25:27.355Z,31.30
2022-12-17T04:26:27.321Z,31.10
2022-12-17T04:27:27.291Z,31.20
2022-12-17T04:28:27.312Z,33.60
2022-12-17T04:29:27.357Z,33.10
2022-12-17T04:30:27.289Z,33.20
2022-12-17T04:31:27.347Z,32.30
2022-12-17T04:32:30.069Z,41.30
2022-12-17T04:33:28.286Z,42.40
2022-12-17T04:34:27.276Z,42.00
2022-12-17T04:35:27.327Z,42.60
2022-12-17T04:36:27.234Z,40.90
2022-12-17T04:37:27.266Z,43.30
2022-12-17T04:38:27.239Z,44.80
2022-12-17T04:39:27.234Z,47.30
2022-12-17T04:40:27.236Z,38.90
2022-12-17T04:41:27.253Z,42.60
2022-12-17T04:42:27.222Z,44.60
2022-12-17T04:43:27.244Z,45.70
2022-12-17T04:44:27.204Z,47.40
2022-12-17T04:45:27.208Z,37.30
2022-12-17T04:46:27.264Z,45.00
2022-12-17T04:47:27.264Z,45.60
2022-12-17T04:48:27.189Z,42.20
2022-12-17T04:49:27.180Z,41.60
2022-12-17T04:50:27.176Z,43.70
2022-12-17T04:51:27.165Z,42.30
2022-12-17T04:52:27.152Z,39.40
2022-12-17T04:53:27.207Z,38.00
2022-12-17T04:54:27.146Z,47.00
2022-12-17T04:55:27.148Z,47.70
2022-12-17T04:56:27.136Z,37.40
2022-12-17T04:57:27.128Z,42.70
2022-12-17T04:58:27.117Z,39.50
2022-12-17T04:59:27.188Z,38.70
2022-12-17T05:00:27.125Z,46.90
2022-12-17T05:01:27.170Z,38.30
2022-12-17T05:02:27.189Z,44.20
2022-12-17T05:03:27.127Z,46.50
2022-12-17T05:04:27.088Z,43.20
2022-12-17T05:05:27.139Z,41.30
2022-12-17T05:06:27.044Z,46.00
2022-12-17T05:07:27.060Z,41.90
2022-12-17T05:08:27.046Z,44.80
2022-12-17T05:09:27.057Z,38.10
2022-12-17T05:10:27.044Z,42.00
2022-12-17T05:11:27.513Z,41.70
2022-12-17T05:12:27.053Z,44.60
2022-12-17T05:13:27.037Z,47.30
2022-12-17T05:14:27.026Z,43.60
2022-12-17T05:15:27.027Z,45.40
2022-12-17T05:16:27.071Z,43.10
2022-12-17T05:17:27.057Z,41.60
2022-12-17T05:18:27.011Z,45.30
2022-12-17T05:19:26.988Z,33.60
2022-12-17T05:20:26.976Z,40.00
2022-12-17T05:21:30.560Z,30.40
2022-12-17T05:22:28.040Z,37.30
2022-12-17T05:23:26.991Z,28.40
2022-12-17T05:24:26.954Z,38.40
2022-12-17T05:25:26.988Z,35.70
2022-12-17T05:26:26.966Z,35.80
2022-12-17T05:27:43.084Z,35.60
2022-12-17T05:28:26.946Z,26.30
2022-12-17T05:29:26.937Z,30.40
2022-12-17T05:30:26.914Z,32.90
2022-12-17T05:31:26.945Z,36.10
2022-12-17T05:32:26.939Z,33.70
2022-12-17T05:33:26.977Z,30.40
2022-12-17T05:34:26.931Z,29.80
2022-12-17T05:35:26.883Z,29.10
2022-12-17T05:36:26.899Z,33.00
2022-12-17T05:37:26.907Z,33.90
2022-12-17T05:38:26.889Z,32.60
2022-12-17T05:39:26.970Z,35.80
2022-12-17T05:40:26.881Z,31.00
2022-12-17T05:41:26.872Z,34.40
2022-12-17T05:42:26.872Z,29.90
2022-12-17T05:43:26.845Z,27.80
2022-12-17T05:44:26.838Z,30.50
2022-12-17T05:45:26.890Z,34.80
2022-12-17T05:46:26.898Z,32.80
2022-12-17T05:47:26.817Z,32.70
2022-12-17T05:48:26.803Z,33.80
2022-12-17T05:49:26.816Z,29.10
2022-12-17T05:50:47.878Z,33.30
2022-12-17T05:51:47.798Z,34.50
2022-12-17T05:52:26.806Z,30.20
2022-12-17T05:53:26.856Z,32.80
2022-12-17T05:54:26.787Z,32.60
2022-12-17T05:55:26.791Z,28.20
2022-12-17T05:56:26.831Z,31.70
2022-12-17T05:57:26.773Z,28.40
2022-12-17T05:58:40.587Z,31.60
2022-12-17T05:59:26.801Z,26.60
2022-12-17T06:00:26.788Z,28.40
2022-12-17T06:01:26.808Z,30.90
2022-12-17T06:02:26.846Z,34.90
2022-12-17T06:03:26.842Z,30.00
2022-12-17T06:04:26.758Z,32.80
2022-12-17T06:05:26.722Z,32.40
2022-12-17T06:06:26.705Z,31.90
2022-12-17T06:07:26.716Z,28.90
2022-12-17T06:08:26.751Z,32.50
2022-12-17T06:09:26.713Z,33.80
2022-12-17T06:10:26.705Z,31.60
2022-12-17T06:11:26.711Z,31.10
2022-12-17T06:12:26.706Z,28.20
2022-12-17T06:13:26.674Z,29.00
2022-12-17T06:14:27.142Z,33.30
2022-12-17T06:15:26.674Z,29.00
2022-12-17T06:16:26.702Z,33.00
2022-12-17T06:17:26.661Z,31.00
2022-12-17T06:18:26.667Z,30.30
2022-12-17T06:19:26.657Z,29.70
2022-12-17T06:20:26.721Z,41.40
2022-12-17T06:21:26.651Z,32.30
2022-12-17T06:22:26.676Z,33.90
2022-12-17T06:23:26.636Z,31.40
2022-12-17T06:24:26.626Z,31.00
2022-12-17T06:25:26.616Z,33.00
2022-12-17T06:26:26.666Z,29.60
2022-12-17T06:27:26.601Z,30.10
2022-12-17T06:28:26.605Z,27.10
2022-12-17T06:29:26.590Z,28.10
2022-12-17T06:30:26.624Z,30.20
2022-12-17T06:31:26.662Z,25.60
2022-12-17T06:32:26.672Z,27.40
2022-12-17T06:33:26.574Z,29.50
2022-12-17T06:34:26.572Z,29.00
2022-12-17T06:35:26.551Z,27.20
2022-12-17T06:36:26.537Z,32.10
2022-12-17T06:37:26.547Z,32.20
2022-12-17T06:38:26.585Z,26.50
2022-12-17T06:39:26.535Z,27.40
2022-12-17T06:40:26.511Z,27.30
2022-12-17T06:41:26.548Z,25.60
2022-12-17T06:42:26.529Z,28.80
2022-12-17T06:43:26.526Z,30.00
2022-12-17T06:44:26.558Z,28.20
2022-12-17T06:45:26.505Z,29.30
2022-12-17T06:46:26.544Z,29.40
2022-12-17T06:47:26.481Z,32.20
2022-12-17T06:48:26.486Z,34.30
2022-12-17T06:49:26.494Z,29.00
2022-12-17T06:50:26.556Z,30.50
2022-12-17T06:51:26.483Z,29.00
2022-12-17T06:52:26.484Z,30.70
2022-12-17T06:53:26.456Z,35.60
2022-12-17T06:54:26.444Z,31.00
2022-12-17T06:55:26.456Z,31.00
2022-12-17T06:56:26.494Z,27.10
2022-12-17T06:57:26.426Z,35.80
2022-12-17T06:58:26.430Z,30.40
2022-12-17T06:59:26.437Z,36.70
2022-12-17T07:00:26.424Z,30.60
2022-12-17T07:01:26.512Z,29.00
2022-12-17T07:02:26.556Z,32.50
2022-12-17T07:03:26.494Z,34.80
2022-12-17T07:04:26.386Z,31.60
2022-12-17T07:05:26.408Z,42.00
2022-12-17T07:06:26.384Z,34.60
2022-12-17T07:07:26.388Z,35.20
2022-12-17T07:08:26.427Z,38.10
2022-12-17T07:09:26.351Z,42.30
2022-12-17T07:10:26.379Z,35.10
2022-12-17T07:11:26.367Z,32.90
2022-12-17T07:12:26.347Z,35.90
2022-12-17T07:13:26.345Z,35.90
2022-12-17T07:14:26.712Z,40.90
2022-12-17T07:15:26.335Z,38.90
2022-12-17T07:16:26.353Z,39.20
2022-12-17T07:17:26.332Z,41.20
2022-12-17T07:18:26.291Z,38.80
2022-12-17T07:19:27.630Z,32.10
2022-12-17T07:20:26.360Z,34.50
2022-12-17T07:21:26.305Z,35.40
2022-12-17T07:22:26.273Z,37.20
2022-12-17T07:23:26.335Z,31.00
2022-12-17T07:24:26.295Z,32.10
2022-12-17T07:25:26.278Z,32.40
2022-12-17T07:26:26.330Z,33.30
2022-12-17T07:27:26.278Z,32.10
2022-12-17T07:28:26.261Z,34.90
2022-12-17T07:29:26.243Z,33.10
2022-12-17T07:30:26.258Z,31.00
2022-12-17T07:31:26.280Z,27.90
2022-12-17T07:32:26.288Z,25.50
2022-12-17T07:33:26.232Z,29.80
2022-12-17T07:34:26.201Z,28.10
2022-12-17T07:35:26.223Z,33.30
2022-12-17T07:36:50.332Z,37.50
2022-12-17T07:37:42.610Z,38.40
2022-12-17T07:38:26.185Z,35.40
2022-12-17T07:39:26.194Z,39.00
2022-12-17T07:40:26.186Z,45.80
2022-12-17T07:41:26.169Z,35.00
2022-12-17T07:42:47.261Z,42.60
2022-12-17T07:43:26.203Z,34.70
2022-12-17T07:44:26.170Z,36.70
2022-12-17T07:45:26.243Z,36.60
2022-12-17T07:46:26.140Z,42.80
2022-12-17T07:47:26.158Z,36.00
2022-12-17T07:48:26.199Z,38.70
2022-12-17T07:49:26.477Z,40.70
2022-12-17T07:50:26.177Z,35.00
2022-12-17T07:51:26.125Z,36.20
2022-12-17T07:52:26.105Z,31.70
2022-12-17T07:53:26.118Z,33.70
2022-12-17T07:54:26.156Z,35.10
2022-12-17T07:55:26.084Z,42.80
2022-12-17T07:56:26.082Z,40.70
2022-12-17T07:57:26.081Z,42.10
2022-12-17T07:58:26.057Z,43.00
2022-12-17T07:59:26.080Z,40.90
2022-12-17T08:00:26.215Z,40.30
2022-12-17T08:01:26.230Z,44.80
2022-12-17T08:02:26.204Z,44.20
2022-12-17T08:03:26.125Z,39.40
2022-12-17T08:04:26.048Z,36.50
2022-12-17T08:05:26.026Z,41.10
2022-12-17T08:06:26.098Z,40.10
2022-12-17T08:07:26.035Z,34.70
2022-12-17T08:08:26.001Z,41.20
2022-12-17T08:09:26.009Z,38.00
2022-12-17T08:10:26.037Z,35.90
2022-12-17T08:11:25.991Z,38.10
2022-12-17T08:12:26.034Z,37.50
2022-12-17T08:13:25.965Z,38.00
2022-12-17T08:14:25.987Z,41.70
2022-12-17T08:15:25.965Z,36.60
2022-12-17T08:16:26.032Z,35.10
2022-12-17T08:17:25.950Z,36.60
2022-12-17T08:18:27.072Z,36.00
2022-12-17T08:19:25.925Z,35.10
2022-12-17T08:20:25.942Z,39.80
2022-12-17T08:21:25.934Z,43.00
2022-12-17T08:22:45.735Z,40.50
2022-12-17T08:23:25.920Z,38.20
2022-12-17T08:24:25.986Z,37.80
2022-12-17T08:25:25.911Z,40.30
2022-12-17T08:26:25.910Z,35.10
2022-12-17T08:27:25.910Z,48.30
2022-12-17T08:29:26.939Z,35.30
2022-12-17T08:30:25.935Z,40.90
2022-12-17T08:31:25.875Z,39.40
2022-12-17T08:32:25.875Z,35.20
2022-12-17T08:33:25.869Z,35.20
2022-12-17T08:34:25.878Z,35.80
2022-12-17T08:35:25.895Z,35.00
2022-12-17T08:36:25.836Z,37.80
2022-12-17T08:37:25.850Z,41.10
2022-12-17T08:38:25.808Z,38.70
2022-12-17T08:39:25.838Z,37.20
2022-12-17T08:40:25.821Z,39.70
2022-12-17T08:41:25.875Z,35.50
2022-12-17T08:42:25.785Z,38.20
2022-12-17T08:43:25.804Z,39.10
2022-12-17T08:44:25.799Z,38.50
2022-12-17T08:45:25.796Z,36.40
2022-12-17T08:46:25.829Z,42.90
2022-12-17T08:47:25.818Z,37.20
2022-12-17T08:48:25.756Z,36.30
2022-12-17T08:49:25.746Z,33.40
2022-12-17T08:50:25.754Z,35.60
2022-12-17T08:51:25.774Z,31.60
2022-12-17T08:52:25.738Z,36.30
2022-12-17T08:53:26.581Z,34.20
2022-12-17T08:54:25.728Z,33.80
2022-12-17T08:55:25.725Z,36.30
2022-12-17T08:56:25.724Z,33.60
2022-12-17T08:57:32.589Z,35.30
2022-12-17T08:58:26.759Z,34.50
2022-12-17T08:59:25.695Z,34.30
2022-12-17T09:00:25.678Z,37.60
2022-12-17T09:01:25.795Z,35.60
2022-12-17T09:02:25.834Z,36.30
2022-12-17T09:03:25.721Z,39.80
2022-12-17T09:04:25.735Z,39.30
2022-12-17T09:05:25.644Z,44.70
2022-12-17T09:06:25.649Z,35.90
2022-12-17T09:07:25.635Z,42.40
2022-12-17T09:08:25.622Z,38.80
2022-12-17T09:09:25.605Z,42.10
2022-12-17T09:10:25.673Z,34.10
2022-12-17T09:11:25.607Z,38.30
2022-12-17T09:12:25.610Z,43.80
2022-12-17T09:13:25.605Z,35.60
2022-12-17T09:14:25.588Z,38.60
2022-12-17T09:15:25.566Z,40.70
2022-12-17T09:16:25.665Z,37.10
2022-12-17T09:17:25.586Z,37.90
2022-12-17T09:18:25.577Z,34.50
2022-12-17T09:19:25.558Z,33.90
2022-12-17T09:20:29.297Z,38.20
2022-12-17T09:21:25.539Z,34.50
2022-12-17T09:22:25.665Z,38.20
2022-12-17T09:23:25.536Z,33.70
2022-12-17T09:24:25.581Z,36.10
2022-12-17T09:25:25.563Z,40.40
2022-12-17T09:26:25.530Z,32.50
2022-12-17T09:27:25.528Z,43.10
2022-12-17T09:28:25.550Z,33.60
2022-12-17T09:29:25.515Z,35.50
2022-12-17T09:30:25.497Z,37.80
2022-12-17T09:31:25.537Z,37.60
2022-12-17T09:32:25.488Z,36.80
2022-12-17T09:33:25.473Z,35.70
2022-12-17T09:34:25.528Z,35.30
2022-12-17T09:35:25.502Z,36.00
2022-12-17T09:36:25.479Z,39.60
2022-12-17T09:37:25.441Z,39.10
2022-12-17T09:38:25.430Z,36.10
2022-12-17T09:39:25.447Z,37.40
2022-12-17T09:40:25.487Z,34.10
2022-12-17T09:41:25.433Z,33.70
2022-12-17T09:42:25.437Z,34.90
2022-12-17T09:43:25.417Z,36.80
2022-12-17T09:44:25.407Z,36.50
2022-12-17T09:45:25.436Z,35.20
2022-12-17T09:46:25.539Z,37.60
2022-12-17T09:47:25.398Z,38.00
2022-12-17T09:48:29.481Z,34.60
2022-12-17T09:49:26.387Z,37.50
2022-12-17T09:50:25.367Z,32.70
2022-12-17T09:51:25.359Z,38.50
2022-12-17T09:52:25.458Z,34.90
2022-12-17T09:53:25.357Z,35.10
2022-12-17T09:54:25.334Z,36.00
2022-12-17T09:55:25.352Z,37.80
2022-12-17T09:56:25.351Z,31.60
2022-12-17T09:57:25.327Z,32.70
2022-12-17T09:58:25.427Z,36.00
2022-12-17T09:59:25.302Z,37.50
2022-12-17T10:00:25.319Z,36.40
2022-12-17T10:01:25.360Z,40.20
2022-12-17T10:02:25.513Z,34.60
2022-12-17T10:03:25.335Z,32.20
2022-12-17T10:04:25.407Z,37.70
2022-12-17T10:05:25.277Z,34.00
2022-12-17T10:06:25.266Z,35.40
2022-12-17T10:07:25.245Z,28.00
2022-12-17T10:08:25.250Z,35.50
2022-12-17T10:09:25.246Z,34.30
2022-12-17T10:10:25.309Z,41.70
2022-12-17T10:11:27.083Z,35.40
2022-12-17T10:12:25.212Z,33.50
2022-12-17T10:13:25.234Z,33.10
2022-12-17T10:14:25.244Z,36.40
2022-12-17T10:15:25.354Z,35.50
2022-12-17T10:16:25.313Z,35.60
2022-12-17T10:17:25.196Z,32.80
2022-12-17T10:18:25.184Z,33.60
2022-12-17T10:19:25.199Z,34.20
2022-12-17T10:20:25.189Z,34.90
2022-12-17T10:21:25.200Z,36.80
2022-12-17T10:22:25.445Z,36.50
2022-12-17T10:23:25.158Z,34.00
2022-12-17T10:24:25.138Z,34.80
2022-12-17T10:25:25.148Z,35.20
2022-12-17T10:26:25.138Z,37.10
2022-12-17T10:27:25.157Z,36.40
2022-12-17T10:28:25.179Z,35.60
2022-12-17T10:29:25.135Z,36.20
2022-12-17T10:30:25.100Z,37.00
2022-12-17T10:31:25.156Z,32.40
2022-12-17T10:32:25.099Z,34.70
2022-12-17T10:33:25.090Z,36.00
2022-12-17T10:34:25.137Z,33.80
2022-12-17T10:35:25.075Z,36.70
2022-12-17T10:36:25.085Z,33.70
2022-12-17T10:37:25.067Z,37.90
2022-12-17T10:38:25.063Z,42.30
2022-12-17T10:39:25.038Z,36.80
2022-12-17T10:40:25.089Z,34.00
2022-12-17T10:41:25.036Z,37.90
2022-12-17T10:42:25.977Z,35.40
2022-12-17T10:43:25.007Z,41.30
2022-12-17T10:44:25.027Z,38.90
2022-12-17T10:45:25.009Z,39.00
2022-12-17T10:46:25.145Z,39.50
2022-12-17T10:47:28.710Z,37.20
2022-12-17T10:48:24.962Z,36.30
2022-12-17T10:49:24.989Z,39.60
2022-12-17T10:50:24.976Z,40.00
2022-12-17T10:51:24.988Z,40.20
2022-12-17T10:52:24.999Z,41.30
2022-12-17T10:53:24.958Z,39.20
2022-12-17T10:54:24.953Z,39.50
2022-12-17T10:55:24.986Z,39.90
2022-12-17T10:56:24.966Z,41.40
2022-12-17T10:57:24.957Z,41.30
2022-12-17T10:58:24.966Z,44.20
2022-12-17T10:59:24.925Z,41.50
2022-12-17T11:00:24.905Z,44.10
2022-12-17T11:01:24.970Z,39.30
2022-12-17T11:02:25.046Z,40.30
2022-12-17T11:03:24.972Z,38.50
2022-12-17T11:04:24.918Z,42.30
2022-12-17T11:05:24.865Z,43.40
2022-12-17T11:06:24.855Z,45.70
2022-12-17T11:07:24.857Z,38.20
2022-12-17T11:08:24.865Z,43.60
2022-12-17T11:09:24.846Z,44.70
2022-12-17T11:10:24.885Z,41.00
2022-12-17T11:11:24.822Z,46.40
2022-12-17T11:12:30.347Z,40.40
2022-12-17T11:13:25.792Z,41.40
2022-12-17T11:14:24.802Z,43.00
2022-12-17T11:15:24.806Z,40.40
2022-12-17T11:16:24.947Z,42.30
2022-12-17T11:17:24.763Z,44.80
2022-12-17T11:18:24.786Z,43.80
2022-12-17T11:19:24.765Z,46.00
2022-12-17T11:20:24.747Z,49.60
2022-12-17T11:21:24.759Z,47.20
2022-12-17T11:22:24.794Z,45.60
2022-12-17T11:23:24.742Z,42.70
2022-12-17T11:24:24.737Z,46.20
2022-12-17T11:25:24.744Z,44.40
2022-12-17T11:26:24.735Z,42.40
2022-12-17T11:27:24.717Z,42.70
2022-12-17T11:28:24.849Z,44.10
2022-12-17T11:29:24.711Z,48.40
2022-12-17T11:30:29.208Z,41.50
2022-12-17T11:31:25.717Z,45.20
2022-12-17T11:32:24.677Z,44.20
2022-12-17T11:33:24.666Z,42.50
2022-12-17T11:34:24.708Z,49.20
2022-12-17T11:35:24.666Z,43.80
2022-12-17T11:36:31.236Z,53.00
2022-12-17T11:37:25.639Z,48.10
2022-12-17T11:38:24.658Z,50.10
2022-12-17T11:39:24.641Z,45.10
2022-12-17T11:40:24.661Z,43.40
2022-12-17T11:41:24.607Z,46.00
2022-12-17T11:42:24.647Z,45.50
2022-12-17T11:43:24.606Z,47.00
2022-12-17T11:44:24.585Z,47.10
2022-12-17T11:45:24.588Z,42.40
2022-12-17T11:46:24.666Z,41.20
2022-12-17T11:47:24.575Z,39.40
2022-12-17T11:48:24.607Z,41.60
2022-12-17T11:49:24.559Z,41.90
2022-12-17T11:50:24.547Z,41.50
2022-12-17T11:51:24.565Z,41.70
2022-12-17T11:52:24.595Z,47.40
2022-12-17T11:53:28.180Z,44.80
2022-12-17T11:54:24.505Z,38.40
2022-12-17T11:55:24.526Z,41.50
2022-12-17T11:56:24.506Z,40.60
2022-12-17T11:57:24.501Z,37.20
2022-12-17T11:58:24.551Z,41.50
2022-12-17T11:59:24.481Z,38.70
2022-12-17T12:00:24.486Z,40.50
2022-12-17T12:01:24.473Z,39.10
2022-12-17T12:02:24.512Z,38.70
2022-12-17T12:03:24.528Z,41.70
2022-12-17T12:04:24.555Z,39.20
2022-12-17T12:05:24.447Z,40.20
2022-12-17T12:06:24.436Z,41.10
2022-12-17T12:07:24.444Z,40.90
2022-12-17T12:08:24.402Z,38.60
2022-12-17T12:09:24.424Z,34.80
2022-12-17T12:10:24.482Z,37.40
2022-12-17T12:11:29.740Z,40.90
2022-12-17T12:12:25.379Z,44.30
2022-12-17T12:13:24.407Z,42.10
2022-12-17T12:14:24.375Z,37.70
2022-12-17T12:15:24.378Z,37.60
2022-12-17T12:16:24.491Z,38.30
2022-12-17T12:17:24.369Z,39.30
2022-12-17T12:18:24.341Z,41.20
2022-12-17T12:19:24.338Z,42.10
2022-12-17T12:20:24.302Z,39.80
2022-12-17T12:21:24.338Z,39.70
2022-12-17T12:22:30.661Z,41.00
2022-12-17T12:23:24.307Z,41.80
2022-12-17T12:24:24.297Z,36.90
2022-12-17T12:25:24.296Z,41.60
2022-12-17T12:26:24.315Z,38.00
2022-12-17T12:27:24.268Z,40.80
2022-12-17T12:28:24.535Z,44.30
2022-12-17T12:29:24.277Z,40.40
2022-12-17T12:30:24.273Z,43.20
2022-12-17T12:31:24.313Z,43.10
2022-12-17T12:32:24.247Z,41.00
2022-12-17T12:33:24.298Z,39.00
2022-12-17T12:34:24.284Z,39.30
2022-12-17T12:35:24.226Z,40.00
2022-12-17T12:36:24.232Z,39.20
2022-12-17T12:37:24.208Z,41.10
2022-12-17T12:38:24.185Z,43.30
2022-12-17T12:39:24.205Z,38.60
2022-12-17T12:40:24.270Z,40.50
2022-12-17T12:41:24.195Z,38.60
2022-12-17T12:42:24.181Z,44.00
2022-12-17T12:43:24.179Z,40.90
2022-12-17T12:44:24.175Z,38.50
2022-12-17T12:45:24.184Z,40.90
2022-12-17T12:46:24.238Z,43.70
2022-12-17T12:47:24.122Z,41.90
2022-12-17T12:48:24.129Z,39.50
2022-12-17T12:49:24.141Z,39.40
2022-12-17T12:50:24.118Z,41.10
2022-12-17T12:51:25.568Z,43.10
2022-12-17T12:52:24.156Z,42.60
2022-12-17T12:53:24.107Z,43.80